Time;durP1;ratioP1;P1;durP2;ratioP2;P2;SDS_P1;SDS_P2;PMS_P1;PMS_P2;Temp;Humidity;BMP_temperature;BMP_pressure;BME280_temperature;BME280_humidity;BME280_pressure;Samples;Min_cycle;Max_cycle;Signal;HPM_P1;HPM_P2
2022/11/15 00:00:14;;;;;;;;;;;;;;;;;;5028559;28;4427;-54
2022/11/15 00:02:39;;;;;;;;;;;;;;;;;;5028036;28;4914;-63
2022/11/15 00:05:05;;;;;;;;;;;;;;;;;;5028944;28;1230;-59
2022/11/15 00:07:30;;;;;;;;;;;;;;;;;;5028933;28;4832;-60
2022/11/15 00:09:55;;;;;;;;;;;;;;;;;;5028766;28;5054;-62
2022/11/15 00:12:21;;;;;;;;;;;;;;;;;;5028559;28;4988;-61
2022/11/15 00:14:46;;;;;;;;;;;;;;;;;;5026993;28;5075;-62
2022/11/15 00:17:11;;;;;;;;;;;;;;;;;;5024387;28;1428;-62
2022/11/15 00:19:36;;;;;;;;;;;;;;;;;;5009016;28;4956;-62
2022/11/15 00:22:02;;;;;;;;;;;;;;;;;;5006935;28;4436;-61
2022/11/15 00:24:27;;;;;;;;;;;;;;;;;;5008769;28;4657;-59
2022/11/15 00:26:52;;;;;;;;;;;;;;;;;;5022777;28;5443;-61
2022/11/15 00:29:17;;;;;;;;;;;;;;;;;;5028720;28;5254;-63
2022/11/15 00:31:43;;;;;;;;;;;;;;;;;;5028934;28;4471;-62
2022/11/15 00:34:09;;;;;;;;;;;;;;;;;;5032276;28;5514;-62
2022/11/15 00:36:34;;;;;;;;;;;;;;;;;;5032545;28;4927;-60
2022/11/15 00:38:59;;;;;;;;;;;;;;;;;;5032552;28;4816;-62
2022/11/15 00:41:24;;;;;;;;;;;;;;;;;;5032035;28;5106;-61
2022/11/15 00:43:50;;;;;;;;;;;;;;;;;;5032971;28;1112;-62
2022/11/15 00:46:15;;;;;;;;;;;;;;;;;;5022856;28;5005;-61
2022/11/15 00:48:40;;;;;;;;;;;;;;;;;;5032284;28;4443;-63
2022/11/15 00:51:05;;;;;;;;;;;;;;;;;;5032305;28;4609;-63
2022/11/15 00:53:31;;;;;;;;;;;;;;;;;;5032476;28;5081;-63
2022/11/15 00:55:56;;;;;;;;;;;;;;;;;;5032599;28;1149;-59
2022/11/15 00:58:21;;;;;;;;;;;;;;;;;;5032297;28;4966;-58
2022/11/15 01:00:46;;;;;;;;;;;;;;;;;;5031213;28;5029;-62
2022/11/15 01:03:12;;;;;;;;;;;;;;;;;;5032364;28;4491;-61
2022/11/15 01:05:37;;;;;;;;;;;;;;;;;;5032269;28;4656;-62
2022/11/15 01:08:03;;;;;;;;;;;;;;;;;;5031140;28;1113;-63
2022/11/15 01:10:28;;;;;;;;;;;;;;;;;;5030420;28;5058;-63
2022/11/15 01:12:53;;;;;;;;;;;;;;;;;;5031914;28;4947;-60
2022/11/15 01:15:18;;;;;;;;;;;;;;;;;;5024893;28;5120;-60
2022/11/15 01:17:44;;;;;;;;;;;;;;;;;;5012294;28;4543;-61
2022/11/15 01:20:09;;;;;;;;;;;;;;;;;;5030948;28;1609;-62
2022/11/15 01:22:34;;;;;;;;;;;;;;;;;;5030454;28;5213;-62
2022/11/15 01:25:00;;;;;;;;;;;;;;;;;;5031963;28;5174;-58
2022/11/15 01:27:25;;;;;;;;;;;;;;;;;;5031740;28;4846;-57
2022/11/15 01:29:50;;;;;;;;;;;;;;;;;;5029137;28;5105;-61
2022/11/15 01:32:15;;;;;;;;;;;;;;;;;;5032471;28;1136;-62
2022/11/15 01:34:41;;;;;;;;;;;;;;;;;;5031350;28;4963;-62
2022/11/15 01:37:06;;;;;;;;;;;;;;;;;;5031101;28;4946;-59
2022/11/15 01:39:31;;;;;;;;;;;;;;;;;;5031252;28;5018;-62
2022/11/15 01:41:56;;;;;;;;;;;;;;;;;;5030554;28;4607;-62
2022/11/15 01:44:34;;;;;;;;;;;;;;;;;;5027970;28;4789;-60
2022/11/15 01:47:04;;;;;;;;;;;;;;;;;;5010979;28;1071;-63
2022/11/15 01:49:30;;;;;;;;;;;;;;;;;;5026400;28;4979;-61
2022/11/15 01:51:55;;;;;;;;;;;;;;;;;;5026368;28;4680;-62
2022/11/15 01:54:20;;;;;;;;;;;;;;;;;;5010908;28;5349;-60
2022/11/15 01:56:51;;;;;;;;;;;;;;;;;;5013177;28;4826;-59
2022/11/15 01:59:16;;;;;;;;;;;;;;;;;;5013608;28;1421;-59
2022/11/15 02:01:42;;;;;;;;;;;;;;;;;;5029583;28;4818;-61
2022/11/15 02:04:17;;;;;;;;;;;;;;;;;;5030307;28;5042;-61
2022/11/15 02:06:42;;;;;;;;;;;;;;;;;;5029210;28;4625;-63
2022/11/15 02:09:07;;;;;;;;;;;;;;;;;;5029193;28;4926;-62
2022/11/15 02:11:33;;;;;;;;;;;;;;;;;;5020786;28;5183;-61
2022/11/15 02:13:58;;;;;;;;;;;;;;;;;;5015496;28;1922;-59
2022/11/15 02:16:42;;;;;;;;;;;;;;;;;;5027631;28;4832;-61
2022/11/15 02:19:18;;;;;;;;;;;;;;;;;;5010400;28;4402;-62
2022/11/15 02:21:44;;;;;;;;;;;;;;;;;;5024074;28;4562;-61
2022/11/15 02:24:28;;;;;;;;;;;;;;;;;;5010493;28;4480;-62
2022/11/15 02:27:16;;;;;;;;;;;;;;;;;;5025673;28;4993;-61
2022/11/15 02:29:54;;;;;;;;;;;;;;;;;;5019016;28;5196;-61
2022/11/15 02:32:34;;;;;;;;;;;;;;;;;;5045038;28;5247;-62
2022/11/15 02:35:02;;;;;;;;;;;;;;;;;;5045593;28;1918;-62
2022/11/15 02:37:30;;;;;;;;;;;;;;;;;;5030567;28;4990;-62
2022/11/15 02:40:05;;;;;;;;;;;;;;;;;;5029065;28;5501;-62
2022/11/15 02:45:23;;;;;;;;;;;;;;;;;;5024996;28;4440;-61
2022/11/15 02:47:48;;;;;;;;;;;;;;;;;;5010353;28;4837;-62
2022/11/15 02:50:15;;;;;;;;;;;;;;;;;;5026021;28;1080;-62
2022/11/15 02:52:41;;;;;;;;;;;;;;;;;;5025056;28;4933;-62
2022/11/15 02:55:25;;;;;;;;;;;;;;;;;;5022280;28;4916;-62
2022/11/15 02:57:59;;;;;;;;;;;;;;;;;;5028052;28;4488;-62
2022/11/15 03:00:24;;;;;;;;;;;;;;;;;;5029473;28;4961;-61
2022/11/15 03:03:05;;;;;;;;;;;;;;;;;;5027960;28;5045;-61
2022/11/15 03:05:30;;;;;;;;;;;;;;;;;;5029201;28;4623;-62
2022/11/15 03:08:14;;;;;;;;;;;;;;;;;;5025676;28;1226;-63
2022/11/15 03:11:09;;;;;;;;;;;;;;;;;;5009240;28;5035;-60
2022/11/15 03:13:53;;;;;;;;;;;;;;;;;;5020291;28;5322;-58
2022/11/15 03:16:18;;;;;;;;;;;;;;;;;;5036214;28;4821;-62
2022/11/15 03:18:44;;;;;;;;;;;;;;;;;;5009775;28;5058;-63
2022/11/15 03:21:11;;;;;;;;;;;;;;;;;;5019701;28;5227;-62
2022/11/15 03:23:36;;;;;;;;;;;;;;;;;;5034014;28;5011;-60
2022/11/15 03:26:01;;;;;;;;;;;;;;;;;;5024873;28;1359;-59
2022/11/15 03:28:32;;;;;;;;;;;;;;;;;;5024719;28;5291;-60
2022/11/15 03:30:58;;;;;;;;;;;;;;;;;;5029222;28;4516;-58
2022/11/15 03:33:23;;;;;;;;;;;;;;;;;;5043926;28;5521;-61
2022/11/15 03:35:48;;;;;;;;;;;;;;;;;;5044190;28;5027;-60
2022/11/15 03:38:19;;;;;;;;;;;;;;;;;;5027051;28;1627;-61
2022/11/15 03:41:01;;;;;;;;;;;;;;;;;;5027775;28;5026;-58
2022/11/15 03:43:32;;;;;;;;;;;;;;;;;;5027430;28;4838;-63
2022/11/15 03:46:01;;;;;;;;;;;;;;;;;;5018495;28;4881;-62
2022/11/15 03:48:27;;;;;;;;;;;;;;;;;;5024078;28;5270;-62
2022/11/15 03:50:52;;;;;;;;;;;;;;;;;;5026188;28;4784;-61
2022/11/15 03:53:17;;;;;;;;;;;;;;;;;;5027382;28;1970;-61
2022/11/15 03:55:43;;;;;;;;;;;;;;;;;;5029258;28;4786;-62
2022/11/15 03:58:08;;;;;;;;;;;;;;;;;;5028645;28;4807;-60
2022/11/15 04:00:33;;;;;;;;;;;;;;;;;;5027291;28;4999;-62
2022/11/15 04:02:59;;;;;;;;;;;;;;;;;;5027078;28;5294;-59
2022/11/15 04:05:24;;;;;;;;;;;;;;;;;;5018503;28;5116;-60
2022/11/15 04:07:49;;;;;;;;;;;;;;;;;;5008990;28;1205;-61
2022/11/15 04:10:15;;;;;;;;;;;;;;;;;;5024614;28;5014;-56
2022/11/15 04:12:42;;;;;;;;;;;;;;;;;;5028466;28;5046;-61
2022/11/15 04:15:08;;;;;;;;;;;;;;;;;;5024884;28;5069;-61
2022/11/15 04:17:43;;;;;;;;;;;;;;;;;;5008865;28;4514;-63
2022/11/15 04:26:03;;;;;;;;;;;;;;;;;;5028576;28;4535;-64
2022/11/15 04:28:29;;;;;;;;;;;;;;;;;;5042863;28;5255;-62
2022/11/15 04:30:54;;;;;;;;;;;;;;;;;;5026878;28;5055;-58
2022/11/15 04:33:19;;;;;;;;;;;;;;;;;;5027127;28;4680;-61
2022/11/15 04:37:11;;;;;;;;;;;;;;;;;;5028608;28;4487;-54
2022/11/15 04:38:30;;;;;;;;;;;;;;;;;;5028450;28;4999;-60
2022/11/15 04:40:55;;;;;;;;;;;;;;;;;;5029408;28;842;-63
2022/11/15 04:43:20;;;;;;;;;;;;;;;;;;5028981;28;4799;-63
2022/11/15 04:45:45;;;;;;;;;;;;;;;;;;5019910;28;4905;-62
2022/11/15 04:48:10;;;;;;;;;;;;;;;;;;5027502;28;4849;-63
2022/11/15 04:50:36;;;;;;;;;;;;;;;;;;5028395;28;5060;-60
2022/11/15 04:53:01;;;;;;;;;;;;;;;;;;5029192;28;1081;-60
2022/11/15 04:55:26;;;;;;;;;;;;;;;;;;5027995;28;5114;-61
2022/11/15 04:57:59;;;;;;;;;;;;;;;;;;5028353;28;5000;-61
2022/11/15 05:00:24;;;;;;;;;;;;;;;;;;5028171;28;5347;-61
2022/11/15 05:05:33;;;;;;;;;;;;;;;;;;5027690;28;4664;-63
2022/11/15 05:07:58;;;;;;;;;;;;;;;;;;5028598;28;1078;-64
2022/11/15 05:10:23;;;;;;;;;;;;;;;;;;5027832;28;5213;-64
2022/11/15 05:12:49;;;;;;;;;;;;;;;;;;5027942;28;4839;-63
2022/11/15 05:15:14;;;;;;;;;;;;;;;;;;5022659;28;4605;-61
2022/11/15 05:17:39;;;;;;;;;;;;;;;;;;5022146;28;4981;-62
2022/11/15 05:20:05;;;;;;;;;;;;;;;;;;5031916;28;1213;-63
2022/11/15 05:22:30;;;;;;;;;;;;;;;;;;5027954;28;5091;-62
2022/11/15 05:24:55;;;;;;;;;;;;;;;;;;5031504;28;4595;-61
2022/11/15 05:27:21;;;;;;;;;;;;;;;;;;5031184;28;4437;-63
2022/11/15 05:29:46;;;;;;;;;;;;;;;;;;5031172;28;5275;-60
2022/11/15 05:32:11;;;;;;;;;;;;;;;;;;5030544;28;1503;-61
2022/11/15 05:34:36;;;;;;;;;;;;;;;;;;5031119;28;4948;-62
2022/11/15 05:37:02;;;;;;;;;;;;;;;;;;5030952;28;4443;-61
2022/11/15 05:39:27;;;;;;;;;;;;;;;;;;5029051;28;4957;-61
2022/11/15 05:41:53;;;;;;;;;;;;;;;;;;5030769;28;4824;-61
2022/11/15 05:44:19;;;;;;;;;;;;;;;;;;5029214;28;5128;-57
2022/11/15 05:46:44;;;;;;;;;;;;;;;;;;5029450;28;1605;-61
2022/11/15 05:49:10;;;;;;;;;;;;;;;;;;5030829;28;5021;-63
2022/11/15 05:51:36;;;;;;;;;;;;;;;;;;5030399;28;4897;-63
2022/11/15 05:54:01;;;;;;;;;;;;;;;;;;5030384;28;4636;-64
2022/11/15 05:56:26;;;;;;;;;;;;;;;;;;5030609;28;5376;-63
2022/11/15 05:58:55;;;;;;;;;;;;;;;;;;5030176;28;1597;-58
2022/11/15 06:01:20;;;;;;;;;;;;;;;;;;5028951;28;4823;-64
2022/11/15 06:03:45;;;;;;;;;;;;;;;;;;5030294;28;4896;-63
2022/11/15 06:06:10;;;;;;;;;;;;;;;;;;5030210;28;4964;-64
2022/11/15 06:08:36;;;;;;;;;;;;;;;;;;5030170;28;5045;-61
2022/11/15 06:11:07;;;;;;;;;;;;;;;;;;5030664;28;956;-59
2022/11/15 06:13:32;;;;;;;;;;;;;;;;;;5029217;28;4999;-59
2022/11/15 06:15:58;;;;;;;;;;;;;;;;;;5020041;28;5022;-62
2022/11/15 06:18:23;;;;;;;;;;;;;;;;;;5020453;28;5551;-62
2022/11/15 06:20:48;;;;;;;;;;;;;;;;;;5028366;28;5036;-62
2022/11/15 06:23:14;;;;;;;;;;;;;;;;;;5030675;28;940;-61
2022/11/15 06:25:39;;;;;;;;;;;;;;;;;;5029440;28;5027;-62
2022/11/15 06:28:04;;;;;;;;;;;;;;;;;;5028832;28;4826;-58
2022/11/15 06:30:29;;;;;;;;;;;;;;;;;;5029504;28;5461;-59
2022/11/15 06:32:58;;;;;;;;;;;;;;;;;;5029904;28;4585;-62
2022/11/15 06:35:23;;;;;;;;;;;;;;;;;;5029808;28;4785;-60
2022/11/15 06:37:49;;;;;;;;;;;;;;;;;;5030644;28;941;-62
2022/11/15 06:40:14;;;;;;;;;;;;;;;;;;5045204;28;5226;-60
2022/11/15 06:42:39;;;;;;;;;;;;;;;;;;5029048;28;5021;-60
2022/11/15 06:45:05;;;;;;;;;;;;;;;;;;5008957;28;5354;-62
2022/11/15 06:47:30;;;;;;;;;;;;;;;;;;5009746;28;4955;-62
2022/11/15 06:49:55;;;;;;;;;;;;;;;;;;5010474;28;867;-62
2022/11/15 06:52:22;;;;;;;;;;;;;;;;;;5009475;28;5042;-62
2022/11/15 06:54:47;;;;;;;;;;;;;;;;;;5009644;28;4390;-61
2022/11/15 06:57:12;;;;;;;;;;;;;;;;;;5009543;28;4819;-61
2022/11/15 06:59:37;;;;;;;;;;;;;;;;;;5008169;28;4554;-63
2022/11/15 07:02:03;;;;;;;;;;;;;;;;;;5014769;28;1170;-61
2022/11/15 07:04:28;;;;;;;;;;;;;;;;;;5029212;28;5158;-59
2022/11/15 07:06:53;;;;;;;;;;;;;;;;;;5028612;28;5000;-61
2022/11/15 07:09:18;;;;;;;;;;;;;;;;;;5029504;28;4919;-62
2022/11/15 07:11:44;;;;;;;;;;;;;;;;;;5029034;28;5095;-61
2022/11/15 07:14:09;;;;;;;;;;;;;;;;;;5044688;28;1981;-62
2022/11/15 07:16:35;;;;;;;;;;;;;;;;;;5014336;28;4925;-59
2022/11/15 07:19:01;;;;;;;;;;;;;;;;;;5009211;28;5153;-61
2022/11/15 07:21:26;;;;;;;;;;;;;;;;;;5010876;28;5050;-62
2022/11/15 07:23:51;;;;;;;;;;;;;;;;;;5029034;28;4644;-62
2022/11/15 07:26:17;;;;;;;;;;;;;;;;;;5029305;28;1101;-60
2022/11/15 07:28:42;;;;;;;;;;;;;;;;;;5028822;28;5397;-62
2022/11/15 07:31:07;;;;;;;;;;;;;;;;;;5028059;28;4997;-62
2022/11/15 07:33:33;;;;;;;;;;;;;;;;;;5027431;28;5058;-60
2022/11/15 07:36:01;;;;;;;;;;;;;;;;;;5028558;28;5117;-61
2022/11/15 07:38:26;;;;;;;;;;;;;;;;;;5028963;28;5238;-61
2022/11/15 07:40:58;;;;;;;;;;;;;;;;;;5027304;28;1512;-60
2022/11/15 07:43:23;;;;;;;;;;;;;;;;;;5027200;28;4499;-61
2022/11/15 07:45:49;;;;;;;;;;;;;;;;;;5024587;28;5098;-62
2022/11/15 07:48:14;;;;;;;;;;;;;;;;;;5028582;28;4928;-61
2022/11/15 07:50:42;;;;;;;;;;;;;;;;;;5028271;28;4966;-60
2022/11/15 07:53:07;;;;;;;;;;;;;;;;;;5028018;28;1114;-62
2022/11/15 07:55:33;;;;;;;;;;;;;;;;;;5029047;28;4437;-62
2022/11/15 07:58:04;;;;;;;;;;;;;;;;;;5028791;28;5023;-63
2022/11/15 08:00:30;;;;;;;;;;;;;;;;;;5028353;28;4435;-61
2022/11/15 08:03:08;;;;;;;;;;;;;;;;;;5028519;28;4581;-61
2022/11/15 08:05:34;;;;;;;;;;;;;;;;;;5029044;28;5130;-62
2022/11/15 08:07:59;;;;;;;;;;;;;;;;;;5029083;28;1496;-62
2022/11/15 08:10:25;;;;;;;;;;;;;;;;;;5027772;28;4997;-62
2022/11/15 08:13:00;;;;;;;;;;;;;;;;;;5026205;28;4552;-60
2022/11/15 08:15:25;;;;;;;;;;;;;;;;;;5026763;28;5149;-58
2022/11/15 08:17:54;;;;;;;;;;;;;;;;;;5028086;28;5241;-61
2022/11/15 08:20:19;;;;;;;;;;;;;;;;;;5028762;28;5076;-61
2022/11/15 08:22:44;;;;;;;;;;;;;;;;;;5027941;28;1039;-62
2022/11/15 08:25:10;;;;;;;;;;;;;;;;;;5028561;28;4909;-61
2022/11/15 08:27:35;;;;;;;;;;;;;;;;;;5028456;28;4449;-68
2022/11/15 08:30:01;;;;;;;;;;;;;;;;;;5026353;28;5270;-62
2022/11/15 08:32:26;;;;;;;;;;;;;;;;;;5026738;28;5358;-61
2022/11/15 08:34:51;;;;;;;;;;;;;;;;;;5027917;28;1973;-62
2022/11/15 08:37:17;;;;;;;;;;;;;;;;;;5027455;28;4842;-62
2022/11/15 08:39:42;;;;;;;;;;;;;;;;;;5027978;28;4972;-62
2022/11/15 08:42:07;;;;;;;;;;;;;;;;;;5009966;28;4465;-60
2022/11/15 08:44:32;;;;;;;;;;;;;;;;;;5027393;28;4876;-61
2022/11/15 08:46:58;;;;;;;;;;;;;;;;;;5026446;28;1661;-60
2022/11/15 08:49:23;;;;;;;;;;;;;;;;;;5028164;28;4897;-61
2022/11/15 08:51:48;;;;;;;;;;;;;;;;;;5006283;28;4469;-61
2022/11/15 08:54:14;;;;;;;;;;;;;;;;;;5018691;28;5553;-60
2022/11/15 08:56:39;;;;;;;;;;;;;;;;;;5031419;28;4437;-61
2022/11/15 08:59:05;;;;;;;;;;;;;;;;;;5032258;28;1535;-62
2022/11/15 09:01:30;;;;;;;;;;;;;;;;;;5029984;28;5038;-62
2022/11/15 09:03:55;;;;;;;;;;;;;;;;;;5031146;28;4678;-62
2022/11/15 09:06:20;;;;;;;;;;;;;;;;;;5029891;28;5055;-61
2022/11/15 09:08:46;;;;;;;;;;;;;;;;;;5031679;28;4942;-62
2022/11/15 09:11:12;;;;;;;;;;;;;;;;;;5031588;28;1479;-60
2022/11/15 09:13:37;;;;;;;;;;;;;;;;;;5030394;28;4403;-60
2022/11/15 09:16:02;;;;;;;;;;;;;;;;;;5021403;28;5153;-60
2022/11/15 09:18:28;;;;;;;;;;;;;;;;;;5016426;28;4989;-60
2022/11/15 09:20:57;;;;;;;;;;;;;;;;;;5028920;28;4558;-59
2022/11/15 09:23:22;;;;;;;;;;;;;;;;;;5030786;28;5125;-66
2022/11/15 09:25:47;;;;;;;;;;;;;;;;;;5030266;28;1349;-59
2022/11/15 09:28:12;;;;;;;;;;;;;;;;;;5030483;28;4836;-58
2022/11/15 09:30:38;;;;;;;;;;;;;;;;;;5030855;28;5319;-58
2022/11/15 09:33:07;;;;;;;;;;;;;;;;;;5031103;28;5067;-58
2022/11/15 09:35:32;;;;;;;;;;;;;;;;;;5030408;28;4525;-59
2022/11/15 09:37:58;;;;;;;;;;;;;;;;;;5031689;28;1081;-59
2022/11/15 09:40:23;;;;;;;;;;;;;;;;;;5031398;28;4883;-58
2022/11/15 09:42:51;;;;;;;;;;;;;;;;;;5031337;28;4832;-59
2022/11/15 09:45:49;;;;;;;;;;;;;;;;;;5026328;28;4936;-58
2022/11/15 09:48:14;;;;;;;;;;;;;;;;;;4999004;28;4969;-58
2022/11/15 09:50:41;;;;;;;;;;;;;;;;;;5025922;28;4917;-58
2022/11/15 09:53:13;;;;;;;;;;;;;;;;;;5010097;28;1323;-58
2022/11/15 09:55:57;;;;;;;;;;;;;;;;;;5010316;28;4874;-58
2022/11/15 09:58:42;;;;;;;;;;;;;;;;;;5025913;28;4399;-58
2022/11/15 10:01:10;;;;;;;;;;;;;;;;;;5010200;28;4441;-58
2022/11/15 10:03:36;;;;;;;;;;;;;;;;;;5042447;28;5189;-58
2022/11/15 10:06:05;;;;;;;;;;;;;;;;;;5045323;28;5078;-58
2022/11/15 10:08:30;;;;;;;;;;;;;;;;;;5045632;28;5022;-58
2022/11/15 10:11:06;;;;;;;;;;;;;;;;;;5030657;28;2330;-58
2022/11/15 10:13:32;;;;;;;;;;;;;;;;;;5030122;28;5012;-58
2022/11/15 10:16:02;;;;;;;;;;;;;;;;;;5036197;28;4747;-58
2022/11/15 10:18:28;;;;;;;;;;;;;;;;;;5009955;28;5170;-60
2022/11/15 10:20:57;;;;;;;;;;;;;;;;;;5006993;28;5006;-60
2022/11/15 10:23:22;;;;;;;;;;;;;;;;;;5026092;28;4707;-60
2022/11/15 10:25:50;;;;;;;;;;;;;;;;;;5016036;28;1106;-59
2022/11/15 10:28:15;;;;;;;;;;;;;;;;;;5028514;28;5185;-60
2022/11/15 10:30:44;;;;;;;;;;;;;;;;;;5029762;28;5274;-59
2022/11/15 10:33:22;;;;;;;;;;;;;;;;;;5029778;28;5007;-60
2022/11/15 10:35:47;;;;;;;;;;;;;;;;;;5030065;28;4952;-60
2022/11/15 10:38:12;;;;;;;;;;;;;;;;;;5045527;28;1348;-60
2022/11/15 10:40:38;;;;;;;;;;;;;;;;;;5028564;28;4468;-59
2022/11/15 10:43:10;;;;;;;;;;;;;;;;;;5028360;28;4516;-59
2022/11/15 10:45:35;;;;;;;;;;;;;;;;;;5024563;28;5152;-59
2022/11/15 10:48:12;;;;;;;;;;;;;;;;;;5009810;28;5046;-59
2022/11/15 10:50:38;;;;;;;;;;;;;;;;;;5009818;28;4992;-60
2022/11/15 10:53:03;;;;;;;;;;;;;;;;;;5010269;28;1042;-59
2022/11/15 10:55:29;;;;;;;;;;;;;;;;;;5024860;28;5015;-59
2022/11/15 10:58:03;;;;;;;;;;;;;;;;;;5009564;28;5284;-58
2022/11/15 11:00:41;;;;;;;;;;;;;;;;;;5041791;28;4467;-59
2022/11/15 11:03:22;;;;;;;;;;;;;;;;;;5029170;28;4886;-59
2022/11/15 11:05:47;;;;;;;;;;;;;;;;;;5044194;28;4906;-58
2022/11/15 11:08:12;;;;;;;;;;;;;;;;;;5028178;28;2349;-59
2022/11/15 11:10:37;;;;;;;;;;;;;;;;;;5028926;28;5054;-59
2022/11/15 11:13:21;;;;;;;;;;;;;;;;;;5028856;28;4415;-59
2022/11/15 11:15:46;;;;;;;;;;;;;;;;;;5021330;28;4482;-59
2022/11/15 11:18:24;;;;;;;;;;;;;;;;;;5024332;28;4424;-59
2022/11/15 11:20:57;;;;;;;;;;;;;;;;;;5023117;28;5278;-58
2022/11/15 11:23:23;;;;;;;;;;;;;;;;;;5024416;28;4447;-58
2022/11/15 11:26:07;;;;;;;;;;;;;;;;;;5015369;28;1106;-60
2022/11/15 11:28:32;;;;;;;;;;;;;;;;;;5028779;28;5409;-58
2022/11/15 11:30:57;;;;;;;;;;;;;;;;;;5027733;28;4742;-60
2022/11/15 11:33:31;;;;;;;;;;;;;;;;;;5024315;28;5005;-60
2022/11/15 11:35:56;;;;;;;;;;;;;;;;;;5018988;28;5027;-60
2022/11/15 11:38:21;;;;;;;;;;;;;;;;;;5024956;28;4546;-60
2022/11/15 11:40:49;;;;;;;;;;;;;;;;;;5009804;28;1226;-60
2022/11/15 11:43:15;;;;;;;;;;;;;;;;;;5009717;28;5129;-60
2022/11/15 11:45:43;;;;;;;;;;;;;;;;;;5023165;28;5024;-60
2022/11/15 11:48:19;;;;;;;;;;;;;;;;;;5027899;28;5165;-61
2022/11/15 11:50:44;;;;;;;;;;;;;;;;;;5032057;28;5044;-58
2022/11/15 11:53:25;;;;;;;;;;;;;;;;;;5029602;28;1576;-53
2022/11/15 11:55:54;;;;;;;;;;;;;;;;;;5008461;28;5010;-57
2022/11/15 11:58:36;;;;;;;;;;;;;;;;;;5024048;28;5100;-56
2022/11/15 12:01:04;;;;;;;;;;;;;;;;;;5004993;28;4966;-57
2022/11/15 12:03:38;;;;;;;;;;;;;;;;;;5004717;28;4499;-62
2022/11/15 12:06:22;;;;;;;;;;;;;;;;;;4993511;28;4880;-64
2022/11/15 12:08:58;;;;;;;;;;;;;;;;;;5006058;28;5067;-63
2022/11/15 12:11:28;;;;;;;;;;;;;;;;;;4998808;28;5131;-64
2022/11/15 12:13:59;;;;;;;;;;;;;;;;;;5014218;28;1918;-62
2022/11/15 12:16:28;;;;;;;;;;;;;;;;;;4991966;28;4605;-62
2022/11/15 12:18:54;;;;;;;;;;;;;;;;;;5012905;28;5138;-63
2022/11/15 12:21:38;;;;;;;;;;;;;;;;;;5020444;28;5080;-62
2022/11/15 12:24:08;;;;;;;;;;;;;;;;;;5017909;28;4989;-62
2022/11/15 12:26:39;;;;;;;;;;;;;;;;;;5029429;28;4753;-63
2022/11/15 12:29:36;;;;;;;;;;;;;;;;;;5027170;28;5342;-63
2022/11/15 12:32:03;;;;;;;;;;;;;;;;;;5013640;28;5044;-68
2022/11/15 12:34:29;;;;;;;;;;;;;;;;;;5018824;28;4626;-63
2022/11/15 12:36:55;;;;;;;;;;;;;;;;;;5038461;28;4475;-61
2022/11/15 12:39:20;;;;;;;;;;;;;;;;;;5013691;28;5287;-56
2022/11/15 12:41:55;;;;;;;;;;;;;;;;;;5014545;28;5764;-56
2022/11/15 12:44:20;;;;;;;;;;;;;;;;;;5012116;28;5082;-56
2022/11/15 12:46:45;;;;;;;;;;;;;;;;;;5022423;28;1680;-56
2022/11/15 12:49:11;;;;;;;;;;;;;;;;;;5031854;28;4605;-56
2022/11/15 12:51:42;;;;;;;;;;;;;;;;;;5019313;28;4590;-58
2022/11/15 12:54:23;;;;;;;;;;;;;;;;;;5035267;28;4473;-57
2022/11/15 12:57:03;;;;;;;;;;;;;;;;;;5031785;28;5038;-60
2022/11/15 12:59:47;;;;;;;;;;;;;;;;;;5030383;28;4545;-57
2022/11/15 13:02:17;;;;;;;;;;;;;;;;;;5047378;28;1398;-58
2022/11/15 13:04:42;;;;;;;;;;;;;;;;;;5010547;28;5640;-58
2022/11/15 13:07:08;;;;;;;;;;;;;;;;;;5010169;28;5107;-58
2022/11/15 13:09:33;;;;;;;;;;;;;;;;;;5019984;28;5300;-56
2022/11/15 13:12:01;;;;;;;;;;;;;;;;;;5030439;28;4494;-56
2022/11/15 13:14:45;;;;;;;;;;;;;;;;;;5044906;28;4564;-57
2022/11/15 13:17:30;;;;;;;;;;;;;;;;;;5017617;28;1750;-57
2022/11/15 13:20:03;;;;;;;;;;;;;;;;;;5030877;28;5090;-57
2022/11/15 13:25:31;;;;;;;;;;;;;;;;;;5044071;28;5053;-58
2022/11/15 13:27:57;;;;;;;;;;;;;;;;;;5005574;28;5513;-57
2022/11/15 13:30:24;;;;;;;;;;;;;;;;;;5006451;28;5243;-57
2022/11/15 13:32:49;;;;;;;;;;;;;;;;;;5008263;28;4968;-58
2022/11/15 13:35:25;;;;;;;;;;;;;;;;;;5011578;28;1969;-58
2022/11/15 13:37:50;;;;;;;;;;;;;;;;;;5017990;28;4831;-57
2022/11/15 13:40:19;;;;;;;;;;;;;;;;;;5045478;28;4928;-57
2022/11/15 13:42:45;;;;;;;;;;;;;;;;;;5031180;28;4828;-57
2022/11/15 13:45:11;;;;;;;;;;;;;;;;;;5030941;28;4918;-56
2022/11/15 13:47:37;;;;;;;;;;;;;;;;;;5030549;28;5216;-57
2022/11/15 13:50:03;;;;;;;;;;;;;;;;;;5030234;28;1540;-58
2022/11/15 13:52:31;;;;;;;;;;;;;;;;;;5046199;28;4950;-59
2022/11/15 13:54:58;;;;;;;;;;;;;;;;;;5042088;28;4977;-58
2022/11/15 13:57:24;;;;;;;;;;;;;;;;;;5046076;28;4962;-55
2022/11/15 13:59:51;;;;;;;;;;;;;;;;;;5037941;28;5058;-58
2022/11/15 14:02:21;;;;;;;;;;;;;;;;;;5033369;28;1561;-58
2022/11/15 14:04:57;;;;;;;;;;;;;;;;;;5030226;28;5062;-55
2022/11/15 14:07:23;;;;;;;;;;;;;;;;;;5027715;28;5177;-62
2022/11/15 14:09:48;;;;;;;;;;;;;;;;;;5029709;28;4467;-62
2022/11/15 14:12:24;;;;;;;;;;;;;;;;;;5028983;28;5143;-60
2022/11/15 14:14:49;;;;;;;;;;;;;;;;;;5011490;28;5019;-60
2022/11/15 14:17:33;;;;;;;;;;;;;;;;;;5021322;28;1723;-61
2022/11/15 14:19:58;;;;;;;;;;;;;;;;;;5030604;28;5228;-63
2022/11/15 14:22:28;;;;;;;;;;;;;;;;;;5026268;28;5305;-63
2022/11/15 14:25:11;;;;;;;;;;;;;;;;;;5018494;28;4654;-64
2022/11/15 14:27:36;;;;;;;;;;;;;;;;;;5023271;28;4997;-64
2022/11/15 14:30:02;;;;;;;;;;;;;;;;;;5012924;28;5219;-62
2022/11/15 14:32:28;;;;;;;;;;;;;;;;;;5012480;28;5405;-64
2022/11/15 14:34:57;;;;;;;;;;;;;;;;;;5027279;28;1985;-64
2022/11/15 14:37:24;;;;;;;;;;;;;;;;;;5024081;28;5254;-64
2022/11/15 14:39:49;;;;;;;;;;;;;;;;;;5010903;28;5002;-62
2022/11/15 14:42:14;;;;;;;;;;;;;;;;;;5025797;28;4501;-63
2022/11/15 14:44:40;;;;;;;;;;;;;;;;;;5029982;28;5095;-63
2022/11/15 14:47:05;;;;;;;;;;;;;;;;;;5015292;28;1667;-61
2022/11/15 14:49:31;;;;;;;;;;;;;;;;;;5015512;28;5070;-64
2022/11/15 14:51:56;;;;;;;;;;;;;;;;;;5016640;28;4538;-62
2022/11/15 14:54:21;;;;;;;;;;;;;;;;;;5028105;28;4966;-64
2022/11/15 14:56:46;;;;;;;;;;;;;;;;;;5018948;28;5015;-61
2022/11/15 14:59:12;;;;;;;;;;;;;;;;;;5029977;28;1019;-63
2022/11/15 15:01:37;;;;;;;;;;;;;;;;;;5024584;28;5062;-64
2022/11/15 15:04:02;;;;;;;;;;;;;;;;;;5017660;28;4947;-64
2022/11/15 15:06:27;;;;;;;;;;;;;;;;;;5013144;28;4989;-64
2022/11/15 15:08:53;;;;;;;;;;;;;;;;;;5009660;28;5048;-63
2022/11/15 15:11:27;;;;;;;;;;;;;;;;;;5018485;28;1503;-62
2022/11/15 15:13:53;;;;;;;;;;;;;;;;;;5022960;28;4861;-63
2022/11/15 15:16:18;;;;;;;;;;;;;;;;;;5020603;28;5072;-62
2022/11/15 15:18:43;;;;;;;;;;;;;;;;;;5014519;28;4944;-61
2022/11/15 15:21:25;;;;;;;;;;;;;;;;;;5024421;28;5115;-61
2022/11/15 15:23:50;;;;;;;;;;;;;;;;;;5029172;28;5106;-61
2022/11/15 15:26:16;;;;;;;;;;;;;;;;;;5027960;28;1456;-62
2022/11/15 15:28:41;;;;;;;;;;;;;;;;;;5012114;28;5251;-62
2022/11/15 15:31:07;;;;;;;;;;;;;;;;;;5018565;28;4937;-62
2022/11/15 15:33:33;;;;;;;;;;;;;;;;;;5007769;28;4956;-62
2022/11/15 15:35:59;;;;;;;;;;;;;;;;;;5009258;28;4891;-62
2022/11/15 15:38:24;;;;;;;;;;;;;;;;;;5014747;28;4626;-62
2022/11/15 15:40:49;;;;;;;;;;;;;;;;;;5034694;28;1536;-62
2022/11/15 15:43:14;;;;;;;;;;;;;;;;;;5028917;28;5011;-62
2022/11/15 15:45:40;;;;;;;;;;;;;;;;;;5010692;28;5585;-62
2022/11/15 15:48:05;;;;;;;;;;;;;;;;;;5016736;28;5727;-62
2022/11/15 15:50:34;;;;;;;;;;;;;;;;;;5025463;28;5083;-62
2022/11/15 15:52:59;;;;;;;;;;;;;;;;;;5012849;28;1633;-64
2022/11/15 15:55:25;;;;;;;;;;;;;;;;;;5017259;28;4998;-67
2022/11/15 15:57:50;;;;;;;;;;;;;;;;;;5001358;28;4581;-69
2022/11/15 16:00:15;;;;;;;;;;;;;;;;;;5000051;28;4529;-65
2022/11/15 16:02:41;;;;;;;;;;;;;;;;;;5023870;28;4536;-67
2022/11/15 16:05:06;;;;;;;;;;;;;;;;;;5028125;28;1499;-67
2022/11/15 16:07:32;;;;;;;;;;;;;;;;;;5026727;28;4447;-66
2022/11/15 16:10:00;;;;;;;;;;;;;;;;;;5028345;28;4707;-66
2022/11/15 16:12:25;;;;;;;;;;;;;;;;;;5028409;28;4818;-67
2022/11/15 16:14:50;;;;;;;;;;;;;;;;;;5013488;28;4521;-67
2022/11/15 16:17:22;;;;;;;;;;;;;;;;;;4989651;28;1717;-68
2022/11/15 16:19:47;;;;;;;;;;;;;;;;;;5011128;28;5730;-66
2022/11/15 16:22:13;;;;;;;;;;;;;;;;;;5019007;28;4860;-66
2022/11/15 16:24:38;;;;;;;;;;;;;;;;;;5023164;28;5125;-66
2022/11/15 16:27:03;;;;;;;;;;;;;;;;;;5018884;28;5127;-68
2022/11/15 16:29:28;;;;;;;;;;;;;;;;;;5042250;28;4894;-67
2022/11/15 16:31:54;;;;;;;;;;;;;;;;;;5026553;28;1263;-68
2022/11/15 16:34:19;;;;;;;;;;;;;;;;;;5047658;28;4505;-67
2022/11/15 16:36:44;;;;;;;;;;;;;;;;;;5032222;28;5089;-67
2022/11/15 16:39:18;;;;;;;;;;;;;;;;;;5013473;28;5024;-64
2022/11/15 16:41:46;;;;;;;;;;;;;;;;;;5017862;28;4943;-67
2022/11/15 16:44:11;;;;;;;;;;;;;;;;;;5024624;28;2310;-68
2022/11/15 16:46:37;;;;;;;;;;;;;;;;;;5018814;28;4570;-66
2022/11/15 16:49:03;;;;;;;;;;;;;;;;;;5027581;28;5154;-65
2022/11/15 16:51:28;;;;;;;;;;;;;;;;;;5023016;28;4885;-63
2022/11/15 16:53:53;;;;;;;;;;;;;;;;;;5028048;28;5025;-67
2022/11/15 16:56:22;;;;;;;;;;;;;;;;;;5027776;28;1535;-64
2022/11/15 16:58:47;;;;;;;;;;;;;;;;;;5027667;28;5083;-66
2022/11/15 17:01:19;;;;;;;;;;;;;;;;;;5022690;28;5038;-66
2022/11/15 17:03:44;;;;;;;;;;;;;;;;;;5059805;28;4471;-64
2022/11/15 17:06:09;;;;;;;;;;;;;;;;;;5011386;28;4491;-66
2022/11/15 17:08:35;;;;;;;;;;;;;;;;;;5035718;28;5184;-65
2022/11/15 17:11:03;;;;;;;;;;;;;;;;;;5016939;28;1603;-64
2022/11/15 17:13:30;;;;;;;;;;;;;;;;;;5028185;28;4985;-64
2022/11/15 17:16:21;;;;;;;;;;;;;;;;;;5026061;28;5006;-63
2022/11/15 17:18:49;;;;;;;;;;;;;;;;;;5023577;28;4711;-65
2022/11/15 17:21:15;;;;;;;;;;;;;;;;;;5044552;28;4986;-65